sensor_id;sensor_type;location;lat;lon;timestamp;temperature;humidity
15615;DHT22;7907;51.368;6.730;2022-11-20T00:00:22;2.00;99.90
15615;DHT22;7907;51.368;6.730;2022-11-20T00:02:49;2.00;99.90
15615;DHT22;7907;51.368;6.730;2022-11-20T00:05:17;1.90;99.90
15615;DHT22;7907;51.368;6.730;2022-11-20T00:07:44;2.00;99.90
15615;DHT22;7907;51.368;6.730;2022-11-20T00:10:12;1.90;99.90
15615;DHT22;7907;51.368;6.730;2022-11-20T00:12:39;1.90;99.90
15615;DHT22;7907;51.368;6.730;2022-11-20T00:15:07;1.80;99.90
15615;DHT22;7907;51.368;6.730;2022-11-20T00:17:37;1.80;99.90
15615;DHT22;7907;51.368;6.730;2022-11-20T00:20:05;1.80;99.90
15615;DHT22;7907;51.368;6.730;2022-11-20T00:22:32;1.80;99.90
15615;DHT22;7907;51.368;6.730;2022-11-20T00:24:59;1.70;99.90
15615;DHT22;7907;51.368;6.730;2022-11-20T00:27:26;1.70;99.90
15615;DHT22;7907;51.368;6.730;2022-11-20T00:29:54;1.70;99.90
15615;DHT22;7907;51.368;6.730;2022-11-20T00:32:21;1.70;99.90
15615;DHT22;7907;51.368;6.730;2022-11-20T00:34:50;1.70;99.90
15615;DHT22;7907;51.368;6.730;2022-11-20T00:37:17;1.80;99.90
15615;DHT22;7907;51.368;6.730;2022-11-20T00:39:45;1.80;99.90
15615;DHT22;7907;51.368;6.730;2022-11-20T00:42:12;1.80;99.90
15615;DHT22;7907;51.368;6.730;2022-11-20T00:44:39;1.80;99.90
15615;DHT22;7907;51.368;6.730;2022-11-20T00:47:07;1.90;99.90
15615;DHT22;7907;51.368;6.730;2022-11-20T00:49:34;1.90;99.90
15615;DHT22;7907;51.368;6.730;2022-11-20T00:52:03;1.90;99.90
15615;DHT22;7907;51.368;6.730;2022-11-20T00:54:30;2.00;99.90
15615;DHT22;7907;51.368;6.730;2022-11-20T00:56:57;2.00;99.90
15615;DHT22;7907;51.368;6.730;2022-11-20T00:59:26;2.10;99.90
15615;DHT22;7907;51.368;6.730;2022-11-20T01:01:54;2.20;99.90
15615;DHT22;7907;51.368;6.730;2022-11-20T01:04:22;2.20;99.90
15615;DHT22;7907;51.368;6.730;2022-11-20T01:06:49;2.20;99.90
15615;DHT22;7907;51.368;6.730;2022-11-20T01:09:19;2.30;99.90
15615;DHT22;7907;51.368;6.730;2022-11-20T01:11:46;2.30;99.90
15615;DHT22;7907;51.368;6.730;2022-11-20T01:14:15;2.40;99.90
15615;DHT22;7907;51.368;6.730;2022-11-20T01:16:46;2.40;99.90
15615;DHT22;7907;51.368;6.730;2022-11-20T01:19:15;2.50;99.90
15615;DHT22;7907;51.368;6.730;2022-11-20T01:21:45;2.50;99.90
15615;DHT22;7907;51.368;6.730;2022-11-20T01:24:14;2.60;99.90
15615;DHT22;7907;51.368;6.730;2022-11-20T01:26:45;2.60;99.90
15615;DHT22;7907;51.368;6.730;2022-11-20T01:29:16;2.60;99.90
15615;DHT22;7907;51.368;6.730;2022-11-20T01:31:44;2.70;99.90
15615;DHT22;7907;51.368;6.730;2022-11-20T01:34:14;2.70;99.90
15615;DHT22;7907;51.368;6.730;2022-11-20T01:36:41;2.70;99.90
15615;DHT22;7907;51.368;6.730;2022-11-20T01:39:11;2.80;99.90
15615;DHT22;7907;51.368;6.730;2022-11-20T01:41:40;2.80;99.90
15615;DHT22;7907;51.368;6.730;2022-11-20T01:44:45;2.90;99.90
15615;DHT22;7907;51.368;6.730;2022-11-20T01:47:16;2.90;99.90
15615;DHT22;7907;51.368;6.730;2022-11-20T01:49:50;3.00;99.90
15615;DHT22;7907;51.368;6.730;2022-11-20T01:52:20;3.00;99.90
15615;DHT22;7907;51.368;6.730;2022-11-20T01:54:54;3.00;99.90
15615;DHT22;7907;51.368;6.730;2022-11-20T01:57:22;3.00;99.90
15615;DHT22;7907;51.368;6.730;2022-11-20T01:59:59;3.10;99.90
15615;DHT22;7907;51.368;6.730;2022-11-20T02:02:27;3.10;99.90
15615;DHT22;7907;51.368;6.730;2022-11-20T02:04:57;3.20;99.90
15615;DHT22;7907;51.368;6.730;2022-11-20T02:07:27;3.20;99.90
15615;DHT22;7907;51.368;6.730;2022-11-20T02:09:55;3.20;99.90
15615;DHT22;7907;51.368;6.730;2022-11-20T02:12:22;3.20;99.90
15615;DHT22;7907;51.368;6.730;2022-11-20T02:15:09;3.30;99.90
15615;DHT22;7907;51.368;6.730;2022-11-20T02:17:39;3.30;99.90
15615;DHT22;7907;51.368;6.730;2022-11-20T02:20:08;3.40;99.90
15615;DHT22;7907;51.368;6.730;2022-11-20T02:22:39;3.40;99.90
15615;DHT22;7907;51.368;6.730;2022-11-20T02:25:12;3.40;99.90
15615;DHT22;7907;51.368;6.730;2022-11-20T02:27:39;3.40;99.90
15615;DHT22;7907;51.368;6.730;2022-11-20T02:30:08;3.40;99.90
15615;DHT22;7907;51.368;6.730;2022-11-20T02:32:37;3.40;99.90
15615;DHT22;7907;51.368;6.730;2022-11-20T02:35:08;3.50;99.90
15615;DHT22;7907;51.368;6.730;2022-11-20T02:37:38;3.40;99.90
15615;DHT22;7907;51.368;6.730;2022-11-20T02:40:07;3.50;99.90
15615;DHT22;7907;51.368;6.730;2022-11-20T02:42:40;3.50;99.90
15615;DHT22;7907;51.368;6.730;2022-11-20T02:45:08;3.60;99.90
15615;DHT22;7907;51.368;6.730;2022-11-20T02:47:36;3.50;99.90
15615;DHT22;7907;51.368;6.730;2022-11-20T02:50:06;3.60;99.90
15615;DHT22;7907;51.368;6.730;2022-11-20T02:52:34;3.60;99.90
15615;DHT22;7907;51.368;6.730;2022-11-20T02:55:01;3.60;99.90
15615;DHT22;7907;51.368;6.730;2022-11-20T02:57:28;3.60;99.90
15615;DHT22;7907;51.368;6.730;2022-11-20T02:59:59;3.70;99.90
15615;DHT22;7907;51.368;6.730;2022-11-20T03:02:29;3.70;99.90
15615;DHT22;7907;51.368;6.730;2022-11-20T03:04:57;3.70;99.90
15615;DHT22;7907;51.368;6.730;2022-11-20T03:07:24;3.70;99.90
15615;DHT22;7907;51.368;6.730;2022-11-20T03:09:51;3.80;99.90
15615;DHT22;7907;51.368;6.730;2022-11-20T03:12:19;3.80;99.90
15615;DHT22;7907;51.368;6.730;2022-11-20T03:14:46;3.80;99.90
15615;DHT22;7907;51.368;6.730;2022-11-20T03:17:17;3.80;99.90
15615;DHT22;7907;51.368;6.730;2022-11-20T03:19:45;3.80;99.90
15615;DHT22;7907;51.368;6.730;2022-11-20T03:22:12;3.90;99.90
15615;DHT22;7907;51.368;6.730;2022-11-20T03:24:39;3.80;99.90
15615;DHT22;7907;51.368;6.730;2022-11-20T03:27:07;3.90;99.90
15615;DHT22;7907;51.368;6.730;2022-11-20T03:29:35;3.90;99.90
15615;DHT22;7907;51.368;6.730;2022-11-20T03:32:03;3.90;99.90
15615;DHT22;7907;51.368;6.730;2022-11-20T03:34:32;3.90;99.90
15615;DHT22;7907;51.368;6.730;2022-11-20T03:37:00;4.00;99.90
15615;DHT22;7907;51.368;6.730;2022-11-20T03:39:29;4.00;99.90
15615;DHT22;7907;51.368;6.730;2022-11-20T03:41:56;4.00;99.90
15615;DHT22;7907;51.368;6.730;2022-11-20T03:44:23;4.00;99.90
15615;DHT22;7907;51.368;6.730;2022-11-20T03:46:50;4.10;99.90
15615;DHT22;7907;51.368;6.730;2022-11-20T03:49:17;4.10;99.90
15615;DHT22;7907;51.368;6.730;2022-11-20T03:51:47;4.10;99.90
15615;DHT22;7907;51.368;6.730;2022-11-20T03:54:16;4.10;99.90
15615;DHT22;7907;51.368;6.730;2022-11-20T03:56:43;4.10;99.90
15615;DHT22;7907;51.368;6.730;2022-11-20T03:59:10;4.10;99.90
15615;DHT22;7907;51.368;6.730;2022-11-20T04:01:37;4.10;99.90
15615;DHT22;7907;51.368;6.730;2022-11-20T04:04:05;4.20;99.90
15615;DHT22;7907;51.368;6.730;2022-11-20T04:06:35;4.20;99.90
15615;DHT22;7907;51.368;6.730;2022-11-20T04:09:06;4.20;99.90
15615;DHT22;7907;51.368;6.730;2022-11-20T04:11:35;4.20;99.90
15615;DHT22;7907;51.368;6.730;2022-11-20T04:14:04;4.20;99.90
15615;DHT22;7907;51.368;6.730;2022-11-20T04:16:35;4.30;99.90
15615;DHT22;7907;51.368;6.730;2022-11-20T04:19:05;4.30;99.90
15615;DHT22;7907;51.368;6.730;2022-11-20T04:21:32;4.30;99.90
15615;DHT22;7907;51.368;6.730;2022-11-20T04:24:00;4.30;99.90
15615;DHT22;7907;51.368;6.730;2022-11-20T04:26:30;4.30;99.90
15615;DHT22;7907;51.368;6.730;2022-11-20T04:28:58;4.30;99.90
15615;DHT22;7907;51.368;6.730;2022-11-20T04:31:28;4.30;99.90
15615;DHT22;7907;51.368;6.730;2022-11-20T04:33:59;4.30;99.90
15615;DHT22;7907;51.368;6.730;2022-11-20T04:36:27;4.30;99.90
15615;DHT22;7907;51.368;6.730;2022-11-20T04:38:56;4.30;99.90
15615;DHT22;7907;51.368;6.730;2022-11-20T04:41:25;4.20;99.90
15615;DHT22;7907;51.368;6.730;2022-11-20T04:43:56;4.20;99.90
15615;DHT22;7907;51.368;6.730;2022-11-20T04:46:25;4.10;99.90
15615;DHT22;7907;51.368;6.730;2022-11-20T04:48:54;4.10;99.90
15615;DHT22;7907;51.368;6.730;2022-11-20T04:51:21;4.00;99.90
15615;DHT22;7907;51.368;6.730;2022-11-20T04:53:48;4.00;99.90
15615;DHT22;7907;51.368;6.730;2022-11-20T04:56:16;4.10;99.90
15615;DHT22;7907;51.368;6.730;2022-11-20T04:58:43;4.10;99.90
15615;DHT22;7907;51.368;6.730;2022-11-20T05:01:14;4.10;99.90
15615;DHT22;7907;51.368;6.730;2022-11-20T05:03:42;4.10;99.90
15615;DHT22;7907;51.368;6.730;2022-11-20T05:06:15;4.10;99.90
15615;DHT22;7907;51.368;6.730;2022-11-20T05:08:42;4.00;99.90
15615;DHT22;7907;51.368;6.730;2022-11-20T05:11:11;4.00;99.90
15615;DHT22;7907;51.368;6.730;2022-11-20T05:13:39;4.10;99.90
15615;DHT22;7907;51.368;6.730;2022-11-20T05:16:08;4.00;99.90
15615;DHT22;7907;51.368;6.730;2022-11-20T05:18:38;4.00;99.90
15615;DHT22;7907;51.368;6.730;2022-11-20T05:21:07;4.00;99.90
15615;DHT22;7907;51.368;6.730;2022-11-20T05:23:37;4.00;99.90
15615;DHT22;7907;51.368;6.730;2022-11-20T05:26:05;4.10;99.90
15615;DHT22;7907;51.368;6.730;2022-11-20T05:28:32;4.10;99.90
15615;DHT22;7907;51.368;6.730;2022-11-20T05:31:05;4.10;99.90
15615;DHT22;7907;51.368;6.730;2022-11-20T05:33:33;4.10;99.90
15615;DHT22;7907;51.368;6.730;2022-11-20T05:36:02;4.10;99.90
15615;DHT22;7907;51.368;6.730;2022-11-20T05:38:30;4.10;99.90
15615;DHT22;7907;51.368;6.730;2022-11-20T05:41:03;4.10;99.90
15615;DHT22;7907;51.368;6.730;2022-11-20T05:43:32;4.00;99.90
15615;DHT22;7907;51.368;6.730;2022-11-20T05:46:01;4.00;99.90
15615;DHT22;7907;51.368;6.730;2022-11-20T05:48:29;4.00;99.90
15615;DHT22;7907;51.368;6.730;2022-11-20T05:50:57;4.00;99.90
15615;DHT22;7907;51.368;6.730;2022-11-20T05:53:26;3.90;99.90
15615;DHT22;7907;51.368;6.730;2022-11-20T05:55:58;3.90;99.90
15615;DHT22;7907;51.368;6.730;2022-11-20T05:58:25;3.90;99.90
15615;DHT22;7907;51.368;6.730;2022-11-20T06:00:53;3.90;99.90
15615;DHT22;7907;51.368;6.730;2022-11-20T06:03:21;3.90;99.90
15615;DHT22;7907;51.368;6.730;2022-11-20T06:05:48;4.00;99.90
15615;DHT22;7907;51.368;6.730;2022-11-20T06:08:15;4.00;99.90
15615;DHT22;7907;51.368;6.730;2022-11-20T06:10:44;4.10;99.90
15615;DHT22;7907;51.368;6.730;2022-11-20T06:13:12;4.10;99.90
15615;DHT22;7907;51.368;6.730;2022-11-20T06:15:39;4.10;99.90
15615;DHT22;7907;51.368;6.730;2022-11-20T06:18:07;4.10;99.90
15615;DHT22;7907;51.368;6.730;2022-11-20T06:20:34;4.10;99.90
15615;DHT22;7907;51.368;6.730;2022-11-20T06:23:01;4.10;99.90
15615;DHT22;7907;51.368;6.730;2022-11-20T06:25:29;4.20;99.90
15615;DHT22;7907;51.368;6.730;2022-11-20T06:27:58;4.20;99.90
15615;DHT22;7907;51.368;6.730;2022-11-20T06:30:26;4.20;99.90
15615;DHT22;7907;51.368;6.730;2022-11-20T06:32:54;4.20;99.90
15615;DHT22;7907;51.368;6.730;2022-11-20T06:35:21;4.20;99.90
15615;DHT22;7907;51.368;6.730;2022-11-20T06:37:49;4.20;99.90
15615;DHT22;7907;51.368;6.730;2022-11-20T06:40:17;4.30;99.90
15615;DHT22;7907;51.368;6.730;2022-11-20T06:42:44;4.30;99.90
15615;DHT22;7907;51.368;6.730;2022-11-20T06:45:14;4.30;99.90
15615;DHT22;7907;51.368;6.730;2022-11-20T06:47:41;4.30;99.90
15615;DHT22;7907;51.368;6.730;2022-11-20T06:50:09;4.30;99.90
15615;DHT22;7907;51.368;6.730;2022-11-20T06:52:36;4.30;99.90
15615;DHT22;7907;51.368;6.730;2022-11-20T06:55:05;4.30;99.90
15615;DHT22;7907;51.368;6.730;2022-11-20T06:57:32;4.30;99.90
15615;DHT22;7907;51.368;6.730;2022-11-20T07:00:01;4.40;99.90
15615;DHT22;7907;51.368;6.730;2022-11-20T07:02:31;4.40;99.90
15615;DHT22;7907;51.368;6.730;2022-11-20T07:04:58;4.30;99.90
15615;DHT22;7907;51.368;6.730;2022-11-20T07:07:26;4.30;99.90
15615;DHT22;7907;51.368;6.730;2022-11-20T07:09:53;4.40;99.90
15615;DHT22;7907;51.368;6.730;2022-11-20T07:12:21;4.40;99.90
15615;DHT22;7907;51.368;6.730;2022-11-20T07:14:48;4.40;99.90
15615;DHT22;7907;51.368;6.730;2022-11-20T07:17:15;4.40;99.90
15615;DHT22;7907;51.368;6.730;2022-11-20T07:19:44;4.30;99.90
15615;DHT22;7907;51.368;6.730;2022-11-20T07:22:12;4.40;99.90
15615;DHT22;7907;51.368;6.730;2022-11-20T07:24:40;4.40;99.90
15615;DHT22;7907;51.368;6.730;2022-11-20T07:27:09;4.30;99.90
15615;DHT22;7907;51.368;6.730;2022-11-20T07:29:39;4.40;99.90
15615;DHT22;7907;51.368;6.730;2022-11-20T07:32:06;4.30;99.90
15615;DHT22;7907;51.368;6.730;2022-11-20T07:34:34;4.30;99.90
15615;DHT22;7907;51.368;6.730;2022-11-20T07:37:03;4.30;99.90
15615;DHT22;7907;51.368;6.730;2022-11-20T07:39:31;4.30;99.90
15615;DHT22;7907;51.368;6.730;2022-11-20T07:41:58;4.30;99.90
15615;DHT22;7907;51.368;6.730;2022-11-20T07:44:25;4.40;99.90
15615;DHT22;7907;51.368;6.730;2022-11-20T07:46:52;4.40;99.90
15615;DHT22;7907;51.368;6.730;2022-11-20T07:49:19;4.40;99.90
15615;DHT22;7907;51.368;6.730;2022-11-20T07:51:46;4.40;99.90
15615;DHT22;7907;51.368;6.730;2022-11-20T07:54:16;4.40;99.90
15615;DHT22;7907;51.368;6.730;2022-11-20T07:56:43;4.40;99.90
15615;DHT22;7907;51.368;6.730;2022-11-20T07:59:11;4.50;99.90
15615;DHT22;7907;51.368;6.730;2022-11-20T08:01:39;4.40;99.90
15615;DHT22;7907;51.368;6.730;2022-11-20T08:04:06;4.50;99.90
15615;DHT22;7907;51.368;6.730;2022-11-20T08:06:34;4.50;99.90
15615;DHT22;7907;51.368;6.730;2022-11-20T08:09:01;4.60;99.90
15615;DHT22;7907;51.368;6.730;2022-11-20T08:11:30;4.60;99.90
15615;DHT22;7907;51.368;6.730;2022-11-20T08:14:29;4.60;99.90
15615;DHT22;7907;51.368;6.730;2022-11-20T08:16:57;4.60;99.90
15615;DHT22;7907;51.368;6.730;2022-11-20T08:19:25;4.70;99.90
15615;DHT22;7907;51.368;6.730;2022-11-20T08:21:52;4.70;99.90
15615;DHT22;7907;51.368;6.730;2022-11-20T08:24:19;4.70;99.90
15615;DHT22;7907;51.368;6.730;2022-11-20T08:26:50;4.80;99.90
15615;DHT22;7907;51.368;6.730;2022-11-20T08:29:17;4.80;99.90
15615;DHT22;7907;51.368;6.730;2022-11-20T08:31:44;4.90;99.90
15615;DHT22;7907;51.368;6.730;2022-11-20T08:34:12;5.00;99.90
15615;DHT22;7907;51.368;6.730;2022-11-20T08:36:42;5.00;99.90
15615;DHT22;7907;51.368;6.730;2022-11-20T08:39:11;5.10;99.90
15615;DHT22;7907;51.368;6.730;2022-11-20T08:41:38;5.20;99.90
15615;DHT22;7907;51.368;6.730;2022-11-20T08:44:07;5.20;99.90
15615;DHT22;7907;51.368;6.730;2022-11-20T08:46:36;5.20;99.90
15615;DHT22;7907;51.368;6.730;2022-11-20T08:49:04;5.30;99.90
15615;DHT22;7907;51.368;6.730;2022-11-20T08:51:32;5.30;99.90
15615;DHT22;7907;51.368;6.730;2022-11-20T08:53:59;5.40;99.90
15615;DHT22;7907;51.368;6.730;2022-11-20T08:56:27;5.40;99.90
15615;DHT22;7907;51.368;6.730;2022-11-20T08:58:54;5.50;99.90
15615;DHT22;7907;51.368;6.730;2022-11-20T09:01:23;5.50;99.90
15615;DHT22;7907;51.368;6.730;2022-11-20T09:03:51;5.50;99.90
15615;DHT22;7907;51.368;6.730;2022-11-20T09:06:18;5.60;99.90
15615;DHT22;7907;51.368;6.730;2022-11-20T09:08:46;5.60;99.90
15615;DHT22;7907;51.368;6.730;2022-11-20T09:11:13;5.70;99.90
15615;DHT22;7907;51.368;6.730;2022-11-20T09:13:40;5.80;99.90
15615;DHT22;7907;51.368;6.730;2022-11-20T09:16:08;5.80;99.90
15615;DHT22;7907;51.368;6.730;2022-11-20T09:18:38;5.90;99.90
15615;DHT22;7907;51.368;6.730;2022-11-20T09:21:07;5.90;99.90
15615;DHT22;7907;51.368;6.730;2022-11-20T09:23:38;5.90;99.90
15615;DHT22;7907;51.368;6.730;2022-11-20T09:26:06;6.00;99.90
15615;DHT22;7907;51.368;6.730;2022-11-20T09:28:34;6.00;99.90
15615;DHT22;7907;51.368;6.730;2022-11-20T09:31:05;6.00;99.90
15615;DHT22;7907;51.368;6.730;2022-11-20T09:33:32;6.10;99.90
15615;DHT22;7907;51.368;6.730;2022-11-20T09:36:02;6.10;99.90
15615;DHT22;7907;51.368;6.730;2022-11-20T09:38:29;6.10;99.90
15615;DHT22;7907;51.368;6.730;2022-11-20T09:41:00;6.10;99.90
15615;DHT22;7907;51.368;6.730;2022-11-20T09:43:42;6.10;99.90
15615;DHT22;7907;51.368;6.730;2022-11-20T09:46:15;6.20;99.90
15615;DHT22;7907;51.368;6.730;2022-11-20T09:49:01;6.10;99.90
15615;DHT22;7907;51.368;6.730;2022-11-20T09:51:39;6.30;99.90
15615;DHT22;7907;51.368;6.730;2022-11-20T09:54:16;6.30;99.90
15615;DHT22;7907;51.368;6.730;2022-11-20T09:56:48;6.40;99.90
15615;DHT22;7907;51.368;6.730;2022-11-20T09:59:32;6.50;99.90
15615;DHT22;7907;51.368;6.730;2022-11-20T10:02:01;6.60;99.90
15615;DHT22;7907;51.368;6.730;2022-11-20T10:04:32;6.60;99.90
15615;DHT22;7907;51.368;6.730;2022-11-20T10:07:06;6.70;99.90
15615;DHT22;7907;51.368;6.730;2022-11-20T10:09:37;6.70;99.90
15615;DHT22;7907;51.368;6.730;2022-11-20T10:12:14;6.80;99.90
15615;DHT22;7907;51.368;6.730;2022-11-20T10:15:01;6.80;99.90
15615;DHT22;7907;51.368;6.730;2022-11-20T10:17:48;6.80;99.90
15615;DHT22;7907;51.368;6.730;2022-11-20T10:20:27;6.80;99.90
15615;DHT22;7907;51.368;6.730;2022-11-20T10:23:23;6.90;99.90
15615;DHT22;7907;51.368;6.730;2022-11-20T10:26:01;6.90;99.90
15615;DHT22;7907;51.368;6.730;2022-11-20T10:28:39;6.90;99.90
15615;DHT22;7907;51.368;6.730;2022-11-20T10:31:22;7.00;99.90
15615;DHT22;7907;51.368;6.730;2022-11-20T10:33:54;6.90;99.90
15615;DHT22;7907;51.368;6.730;2022-11-20T10:36:26;6.90;99.90
15615;DHT22;7907;51.368;6.730;2022-11-20T10:39:01;6.90;99.90
15615;DHT22;7907;51.368;6.730;2022-11-20T10:41:40;7.00;99.90
15615;DHT22;7907;51.368;6.730;2022-11-20T10:44:12;7.00;99.90
15615;DHT22;7907;51.368;6.730;2022-11-20T10:47:01;7.10;99.90
15615;DHT22;7907;51.368;6.730;2022-11-20T10:49:30;7.00;99.90
15615;DHT22;7907;51.368;6.730;2022-11-20T10:52:03;7.20;99.90
15615;DHT22;7907;51.368;6.730;2022-11-20T10:54:39;7.20;99.90
15615;DHT22;7907;51.368;6.730;2022-11-20T10:57:15;7.20;99.90
15615;DHT22;7907;51.368;6.730;2022-11-20T10:59:54;7.20;99.90
15615;DHT22;7907;51.368;6.730;2022-11-20T11:02:24;7.20;99.90
15615;DHT22;7907;51.368;6.730;2022-11-20T11:04:58;7.10;99.90
15615;DHT22;7907;51.368;6.730;2022-11-20T11:07:35;7.20;99.90
15615;DHT22;7907;51.368;6.730;2022-11-20T11:10:15;7.20;99.90
15615;DHT22;7907;51.368;6.730;2022-11-20T11:12:45;7.20;99.90
15615;DHT22;7907;51.368;6.730;2022-11-20T11:15:14;7.10;99.90
15615;DHT22;7907;51.368;6.730;2022-11-20T11:17:51;7.10;99.90
15615;DHT22;7907;51.368;6.730;2022-11-20T11:20:19;7.00;99.90
15615;DHT22;7907;51.368;6.730;2022-11-20T11:22:48;7.10;99.90
15615;DHT22;7907;51.368;6.730;2022-11-20T11:25:26;7.10;99.90
15615;DHT22;7907;51.368;6.730;2022-11-20T11:27:55;7.20;99.90
15615;DHT22;7907;51.368;6.730;2022-11-20T11:30:24;7.20;99.90
15615;DHT22;7907;51.368;6.730;2022-11-20T11:33:03;7.30;99.90
15615;DHT22;7907;51.368;6.730;2022-11-20T11:35:32;7.30;99.90
15615;DHT22;7907;51.368;6.730;2022-11-20T11:38:04;7.30;99.90
15615;DHT22;7907;51.368;6.730;2022-11-20T11:40:36;7.30;99.90
15615;DHT22;7907;51.368;6.730;2022-11-20T11:43:07;7.30;99.90
15615;DHT22;7907;51.368;6.730;2022-11-20T11:46:09;7.20;99.90
15615;DHT22;7907;51.368;6.730;2022-11-20T11:48:40;7.20;99.90
15615;DHT22;7907;51.368;6.730;2022-11-20T11:51:08;7.30;99.90
15615;DHT22;7907;51.368;6.730;2022-11-20T11:53:40;7.20;99.90
15615;DHT22;7907;51.368;6.730;2022-11-20T11:56:10;7.20;99.90
15615;DHT22;7907;51.368;6.730;2022-11-20T11:58:44;7.20;99.90
15615;DHT22;7907;51.368;6.730;2022-11-20T12:01:24;7.20;99.90
15615;DHT22;7907;51.368;6.730;2022-11-20T12:04:02;7.20;99.90
15615;DHT22;7907;51.368;6.730;2022-11-20T12:06:31;7.20;99.90
15615;DHT22;7907;51.368;6.730;2022-11-20T12:09:03;7.20;99.90
15615;DHT22;7907;51.368;6.730;2022-11-20T12:11:38;7.30;99.90
15615;DHT22;7907;51.368;6.730;2022-11-20T12:14:13;7.30;99.90
15615;DHT22;7907;51.368;6.730;2022-11-20T12:16:41;7.40;99.90
15615;DHT22;7907;51.368;6.730;2022-11-20T12:19:11;7.40;99.90
15615;DHT22;7907;51.368;6.730;2022-11-20T12:21:47;7.40;99.90
15615;DHT22;7907;51.368;6.730;2022-11-20T12:24:35;7.40;99.90
15615;DHT22;7907;51.368;6.730;2022-11-20T12:27:21;7.50;99.90
15615;DHT22;7907;51.368;6.730;2022-11-20T12:29:59;7.50;99.90
15615;DHT22;7907;51.368;6.730;2022-11-20T12:35:42;7.50;99.90
15615;DHT22;7907;51.368;6.730;2022-11-20T12:38:37;7.50;99.90
15615;DHT22;7907;51.368;6.730;2022-11-20T12:41:12;7.50;99.90
15615;DHT22;7907;51.368;6.730;2022-11-20T12:44:16;7.50;99.90
15615;DHT22;7907;51.368;6.730;2022-11-20T12:47:13;7.50;99.90
15615;DHT22;7907;51.368;6.730;2022-11-20T12:49:50;7.50;99.90
15615;DHT22;7907;51.368;6.730;2022-11-20T12:52:31;7.50;99.90
15615;DHT22;7907;51.368;6.730;2022-11-20T12:55:17;7.50;99.90
15615;DHT22;7907;51.368;6.730;2022-11-20T12:57:53;7.50;99.90
15615;DHT22;7907;51.368;6.730;2022-11-20T13:00:24;7.50;99.90
15615;DHT22;7907;51.368;6.730;2022-11-20T13:03:09;7.50;99.90
15615;DHT22;7907;51.368;6.730;2022-11-20T13:05:49;7.50;99.90
15615;DHT22;7907;51.368;6.730;2022-11-20T13:08:21;7.50;99.90
15615;DHT22;7907;51.368;6.730;2022-11-20T13:10:52;7.50;99.90
15615;DHT22;7907;51.368;6.730;2022-11-20T13:13:28;7.50;99.90
15615;DHT22;7907;51.368;6.730;2022-11-20T13:16:02;7.50;99.90
15615;DHT22;7907;51.368;6.730;2022-11-20T13:18:37;7.50;99.90
15615;DHT22;7907;51.368;6.730;2022-11-20T13:21:17;7.50;99.90
15615;DHT22;7907;51.368;6.730;2022-11-20T13:23:44;7.50;99.90
15615;DHT22;7907;51.368;6.730;2022-11-20T13:26:17;7.30;99.90
15615;DHT22;7907;51.368;6.730;2022-11-20T13:29:09;7.40;99.90
15615;DHT22;7907;51.368;6.730;2022-11-20T13:31:43;7.40;99.90
15615;DHT22;7907;51.368;6.730;2022-11-20T13:34:13;7.40;99.90
15615;DHT22;7907;51.368;6.730;2022-11-20T13:36:51;7.40;99.90
15615;DHT22;7907;51.368;6.730;2022-11-20T13:39:24;7.40;99.90
15615;DHT22;7907;51.368;6.730;2022-11-20T13:41:54;7.40;99.90
15615;DHT22;7907;51.368;6.730;2022-11-20T13:44:27;7.40;99.90
15615;DHT22;7907;51.368;6.730;2022-11-20T13:46:58;7.30;99.90
15615;DHT22;7907;51.368;6.730;2022-11-20T13:49:29;7.40;99.90
15615;DHT22;7907;51.368;6.730;2022-11-20T13:52:08;7.40;99.90
15615;DHT22;7907;51.368;6.730;2022-11-20T13:55:05;7.30;99.90
15615;DHT22;7907;51.368;6.730;2022-11-20T13:57:58;7.30;99.90
15615;DHT22;7907;51.368;6.730;2022-11-20T14:00:28;7.30;99.90
15615;DHT22;7907;51.368;6.730;2022-11-20T14:03:13;7.30;99.90
15615;DHT22;7907;51.368;6.730;2022-11-20T14:05:50;7.30;99.90
15615;DHT22;7907;51.368;6.730;2022-11-20T14:08:25;7.40;99.90
15615;DHT22;7907;51.368;6.730;2022-11-20T14:11:03;7.30;99.90
15615;DHT22;7907;51.368;6.730;2022-11-20T14:13:31;7.30;99.90
15615;DHT22;7907;51.368;6.730;2022-11-20T14:15:58;7.30;99.90
15615;DHT22;7907;51.368;6.730;2022-11-20T14:18:27;7.30;99.90
15615;DHT22;7907;51.368;6.730;2022-11-20T14:20:55;7.40;99.90
15615;DHT22;7907;51.368;6.730;2022-11-20T14:23:26;7.40;99.90
15615;DHT22;7907;51.368;6.730;2022-11-20T14:25:54;7.30;99.90
15615;DHT22;7907;51.368;6.730;2022-11-20T14:28:26;7.40;99.90
15615;DHT22;7907;51.368;6.730;2022-11-20T14:30:54;7.40;99.90
15615;DHT22;7907;51.368;6.730;2022-11-20T14:33:25;7.40;99.90
15615;DHT22;7907;51.368;6.730;2022-11-20T14:35:55;7.40;99.90
15615;DHT22;7907;51.368;6.730;2022-11-20T14:38:25;7.40;99.90
15615;DHT22;7907;51.368;6.730;2022-11-20T14:40:54;7.40;99.90
15615;DHT22;7907;51.368;6.730;2022-11-20T14:43:24;7.40;99.90
15615;DHT22;7907;51.368;6.730;2022-11-20T14:45:59;7.40;99.90
15615;DHT22;7907;51.368;6.730;2022-11-20T14:48:30;7.30;99.90
15615;DHT22;7907;51.368;6.730;2022-11-20T14:51:03;7.30;99.90
15615;DHT22;7907;51.368;6.730;2022-11-20T14:53:30;7.30;99.90
15615;DHT22;7907;51.368;6.730;2022-11-20T14:55:59;7.30;99.90
15615;DHT22;7907;51.368;6.730;2022-11-20T14:58:29;7.20;99.90
15615;DHT22;7907;51.368;6.730;2022-11-20T15:01:00;7.30;99.90
15615;DHT22;7907;51.368;6.730;2022-11-20T15:03:32;7.20;99.90
15615;DHT22;7907;51.368;6.730;2022-11-20T15:06:01;7.20;99.90
15615;DHT22;7907;51.368;6.730;2022-11-20T15:08:29;7.20;99.90
15615;DHT22;7907;51.368;6.730;2022-11-20T15:10:57;7.20;99.90
15615;DHT22;7907;51.368;6.730;2022-11-20T15:13:29;7.30;99.90
15615;DHT22;7907;51.368;6.730;2022-11-20T15:15:58;7.20;99.90
15615;DHT22;7907;51.368;6.730;2022-11-20T15:18:30;7.20;99.90
15615;DHT22;7907;51.368;6.730;2022-11-20T15:21:02;7.20;99.90
15615;DHT22;7907;51.368;6.730;2022-11-20T15:23:31;7.20;99.90
15615;DHT22;7907;51.368;6.730;2022-11-20T15:25:58;7.20;99.90
15615;DHT22;7907;51.368;6.730;2022-11-20T15:28:30;7.10;99.90
15615;DHT22;7907;51.368;6.730;2022-11-20T15:30:59;7.10;99.90
15615;DHT22;7907;51.368;6.730;2022-11-20T15:33:27;7.10;99.90
15615;DHT22;7907;51.368;6.730;2022-11-20T15:35:54;7.10;99.90
15615;DHT22;7907;51.368;6.730;2022-11-20T15:38:24;7.10;99.90
15615;DHT22;7907;51.368;6.730;2022-11-20T15:40:51;7.10;99.90
15615;DHT22;7907;51.368;6.730;2022-11-20T15:43:18;7.10;99.90
15615;DHT22;7907;51.368;6.730;2022-11-20T15:45:47;7.10;99.90
15615;DHT22;7907;51.368;6.730;2022-11-20T15:48:17;7.10;99.90
15615;DHT22;7907;51.368;6.730;2022-11-20T15:50:50;7.10;99.90
15615;DHT22;7907;51.368;6.730;2022-11-20T15:53:19;7.00;99.90
15615;DHT22;7907;51.368;6.730;2022-11-20T15:55:48;7.00;99.90
15615;DHT22;7907;51.368;6.730;2022-11-20T15:58:15;7.00;99.90
15615;DHT22;7907;51.368;6.730;2022-11-20T16:00:43;7.00;99.90
15615;DHT22;7907;51.368;6.730;2022-11-20T16:03:11;7.00;99.90
15615;DHT22;7907;51.368;6.730;2022-11-20T16:05:39;7.00;99.90
15615;DHT22;7907;51.368;6.730;2022-11-20T16:08:06;7.00;99.90
15615;DHT22;7907;51.368;6.730;2022-11-20T16:10:33;7.00;99.90
15615;DHT22;7907;51.368;6.730;2022-11-20T16:13:03;7.00;99.90
15615;DHT22;7907;51.368;6.730;2022-11-20T16:15:53;7.00;99.90
15615;DHT22;7907;51.368;6.730;2022-11-20T16:18:24;7.00;99.90
15615;DHT22;7907;51.368;6.730;2022-11-20T16:20:52;7.00;99.90
15615;DHT22;7907;51.368;6.730;2022-11-20T16:23:20;7.00;99.90
15615;DHT22;7907;51.368;6.730;2022-11-20T16:25:48;7.00;99.90
15615;DHT22;7907;51.368;6.730;2022-11-20T16:28:18;7.00;99.90